Time;durP1;ratioP1;P1;durP2;ratioP2;P2;SDS_P1;SDS_P2;PMS_P1;PMS_P2;Temp;Humidity;BMP_temperature;BMP_pressure;BME280_temperature;BME280_humidity;BME280_pressure;Samples;Min_cycle;Max_cycle;Signal;HPM_P1;HPM_P2
2022/03/03 00:01:40;;;;;;;;;81.00;61.25;;;;;10.14;55.71;101424.28;5098622;27;45390;-41
2022/03/03 00:04:06;;;;;;;;;84.00;62.00;;;;;10.05;56.35;101408.28;5097414;27;45373;-41
2022/03/03 00:06:32;;;;;;;;;83.50;59.75;;;;;10.05;56.43;101413.59;5098213;27;45474;-41
2022/03/03 00:08:58;;;;;;;;;80.25;62.75;;;;;10.12;55.62;101422.75;5098526;27;45417;-42
2022/03/03 00:11:23;;;;;;;;;84.75;60.75;;;;;10.11;56.26;101419.25;5098391;27;45371;-40
2022/03/03 00:13:49;;;;;;;;;81.75;63.00;;;;;10.09;57.04;101420.34;5097483;27;46233;-42
2022/03/03 00:16:14;;;;;;;;;77.75;59.00;;;;;9.99;56.69;101405.16;5098080;27;45312;-41
2022/03/03 00:18:40;;;;;;;;;83.75;63.75;;;;;10.07;57.18;101417.81;5098002;27;45330;-41
2022/03/03 00:21:05;;;;;;;;;87.75;63.50;;;;;10.08;56.82;101418.66;5098262;27;45391;-41
2022/03/03 00:23:32;;;;;;;;;83.75;62.25;;;;;10.08;56.54;101416.00;5098119;27;45326;-41
2022/03/03 00:25:58;;;;;;;;;77.50;58.75;;;;;10.07;56.28;101409.84;5097941;27;45227;-38
2022/03/03 00:28:23;;;;;;;;;85.50;63.25;;;;;9.98;56.94;101399.94;5098170;27;45324;-40
2022/03/03 00:30:48;;;;;;;;;85.25;62.00;;;;;10.07;57.22;101416.94;5098319;27;45414;-42
2022/03/03 00:33:14;;;;;;;;;81.00;61.25;;;;;10.02;57.70;101420.00;5097622;27;46301;-41
2022/03/03 00:35:39;;;;;;;;;88.00;62.25;;;;;10.01;57.01;101418.31;5097670;27;45346;-41
2022/03/03 00:38:05;;;;;;;;;77.75;58.25;;;;;10.00;57.75;101413.97;5098114;27;45522;-40
2022/03/03 00:40:30;;;;;;;;;81.25;62.50;;;;;9.98;57.17;101410.56;5097828;27;45253;-41
2022/03/03 00:42:56;;;;;;;;;78.50;60.25;;;;;10.00;58.17;101417.47;5097761;27;47150;-42
2022/03/03 00:45:22;;;;;;;;;82.50;62.75;;;;;9.98;57.09;101419.38;5097326;27;45340;-42
2022/03/03 00:47:48;;;;;;;;;81.50;60.75;;;;;9.96;56.92;101412.53;5097713;27;45342;-40
2022/03/03 00:50:13;;;;;;;;;83.00;60.50;;;;;9.97;57.47;101416.88;5097699;27;45518;-41
2022/03/03 00:52:38;;;;;;;;;76.75;60.00;;;;;9.95;56.96;101416.16;5097402;27;45822;-40
2022/03/03 00:55:04;;;;;;;;;81.25;63.75;;;;;9.94;58.23;101417.13;5097577;27;45270;-41
2022/03/03 00:57:30;;;;;;;;;88.50;64.75;;;;;9.87;57.76;101402.66;5097415;27;45314;-40
2022/03/03 00:59:55;;;;;;;;;81.00;59.75;;;;;9.95;57.76;101421.47;5097731;27;45302;-41
2022/03/03 01:02:20;;;;;;;;;90.75;62.50;;;;;9.95;57.83;101418.81;5097353;27;46146;-40
2022/03/03 01:04:46;;;;;;;;;86.00;60.00;;;;;9.94;57.93;101417.97;5097385;27;45251;-41
2022/03/03 01:07:11;;;;;;;;;88.00;64.50;;;;;9.96;57.55;101421.34;5097473;27;45311;-41
2022/03/03 01:09:37;;;;;;;;;86.00;62.00;;;;;9.96;58.32;101424.00;5097454;27;45437;-39
2022/03/03 01:12:03;;;;;;;;;88.25;67.00;;;;;9.99;58.11;101428.25;5097227;27;45303;-40
2022/03/03 01:14:28;;;;;;;;;86.75;64.75;;;;;9.96;58.47;101416.03;5097167;27;45413;-41
2022/03/03 01:16:54;;;;;;;;;86.50;63.25;;;;;9.90;57.65;101399.72;5097443;27;45421;-42
2022/03/03 01:19:19;;;;;;;;;86.75;63.75;;;;;9.97;58.05;101417.72;5097387;27;45362;-41
2022/03/03 01:21:45;;;;;;;;;80.75;61.50;;;;;9.93;58.07;101420.75;5097234;27;46194;-39
2022/03/03 01:24:10;;;;;;;;;86.25;65.25;;;;;9.98;57.97;101419.38;5096040;27;45365;-41
2022/03/03 01:26:36;;;;;;;;;90.00;66.50;;;;;9.97;57.98;101416.88;5097003;27;45444;-40
2022/03/03 01:29:01;;;;;;;;;86.75;63.00;;;;;9.98;57.88;101416.72;5097351;27;45395;-40
2022/03/03 01:31:27;;;;;;;;;80.00;59.75;;;;;10.02;58.27;101417.31;5096844;27;46263;-39
2022/03/03 01:33:52;;;;;;;;;87.00;64.75;;;;;9.97;58.10;101398.25;5078904;27;45531;-40
2022/03/03 01:36:18;;;;;;;;;87.00;63.50;;;;;10.04;58.08;101414.56;5096948;27;45724;-41
2022/03/03 01:38:44;;;;;;;;;80.25;58.00;;;;;10.02;58.42;101412.00;5097025;27;45623;-41
2022/03/03 01:41:09;;;;;;;;;81.25;61.75;;;;;10.01;57.78;101410.34;5096597;27;46179;-41
2022/03/03 01:43:36;;;;;;;;;79.75;57.25;;;;;10.00;57.87;101403.34;5096800;27;45377;-42
2022/03/03 01:46:02;;;;;;;;;84.50;62.25;;;;;10.02;57.59;101403.19;5096460;27;45325;-42
2022/03/03 01:48:27;;;;;;;;;89.75;64.25;;;;;10.03;57.65;101405.75;5096973;27;45349;-40
2022/03/03 01:50:53;;;;;;;;;77.50;60.75;;;;;10.06;57.01;101401.97;5096585;27;47272;-42
2022/03/03 01:53:19;;;;;;;;;86.00;62.75;;;;;10.06;57.33;101401.97;5096681;27;45316;-40
2022/03/03 01:55:45;;;;;;;;;79.50;62.25;;;;;10.05;58.23;101401.13;5096806;27;45361;-41
2022/03/03 01:58:11;;;;;;;;;83.50;61.50;;;;;10.10;58.10;101395.44;5096684;27;45517;-41
2022/03/03 02:00:36;;;;;;;;;82.00;62.50;;;;;10.10;57.63;101393.63;5096564;27;46804;-42
2022/03/03 02:03:02;;;;;;;;;83.00;62.50;;;;;10.13;57.41;101388.06;5096599;27;45368;-43
2022/03/03 02:05:28;;;;;;;;;84.50;63.00;;;;;10.14;57.89;101392.38;5096660;27;45326;-41
2022/03/03 02:07:54;;;;;;;;;83.00;62.75;;;;;10.16;56.90;101390.47;5097099;27;45284;-42
2022/03/03 02:10:19;;;;;;;;;82.75;63.25;;;;;10.17;57.50;101388.66;5095576;27;45330;-42
2022/03/03 02:12:44;;;;;;;;;78.25;63.00;;;;;10.15;57.79;101391.41;5096391;27;45578;-42
2022/03/03 02:15:17;;;;;;;;;87.25;63.25;;;;;10.10;57.18;101376.81;5096608;27;45460;-41
2022/03/03 02:17:43;;;;;;;;;79.25;61.75;;;;;10.21;57.75;101395.41;5096883;27;45416;-42
2022/03/03 02:20:22;;;;;;;;;85.75;63.50;;;;;10.17;57.54;101381.50;5096490;27;46228;-40
2022/03/03 02:22:49;;;;;;;;;85.75;63.50;;;;;10.22;57.96;101389.09;5096269;27;45814;-41
2022/03/03 02:25:14;;;;;;;;;79.25;60.25;;;;;10.26;57.81;101389.72;5096430;27;45641;-41
2022/03/03 02:27:40;;;;;;;;;88.25;63.50;;;;;10.27;57.86;101386.91;5096630;27;45491;-41
2022/03/03 02:30:06;;;;;;;;;84.00;63.00;;;;;10.26;57.44;101371.94;5095641;27;45449;-42
2022/03/03 02:32:32;;;;;;;;;85.00;65.50;;;;;10.29;58.09;101385.00;5096289;27;45451;-42
2022/03/03 02:34:57;;;;;;;;;86.00;65.75;;;;;10.29;57.77;101390.31;5096307;27;45661;-40
2022/03/03 02:37:24;;;;;;;;;86.75;62.50;;;;;10.29;57.95;101379.69;5099491;27;45374;-40
2022/03/03 02:39:49;;;;;;;;;86.75;64.25;;;;;10.29;57.87;101381.50;5099029;27;45386;-41
2022/03/03 02:42:15;;;;;;;;;85.50;64.00;;;;;10.29;57.38;101374.34;5099681;27;45184;-40
2022/03/03 02:44:40;;;;;;;;;90.50;64.75;;;;;10.28;57.70;101372.69;5099399;27;45331;-39
2022/03/03 02:47:05;;;;;;;;;80.25;59.50;;;;;10.27;57.04;101372.78;5099644;27;45595;-40
2022/03/03 02:49:31;;;;;;;;;83.50;64.00;;;;;10.24;57.96;101366.78;5099440;27;45441;-40
2022/03/03 02:51:56;;;;;;;;;86.00;63.00;;;;;10.22;57.33;101381.97;5099356;27;45434;-41
2022/03/03 02:54:21;;;;;;;;;84.50;63.50;;;;;10.19;58.20;101368.91;5099599;27;45843;-40
2022/03/03 02:59:31;;;;;;;;;85.25;61.00;;;;;10.19;57.76;101366.25;5099244;27;45642;-39
2022/03/03 03:01:56;;;;;;;;;81.50;60.00;;;;;10.19;58.07;101362.75;5099310;27;45133;-39
2022/03/03 03:04:22;;;;;;;;;87.00;63.75;;;;;10.16;58.42;101357.72;5099156;27;45386;-42
2022/03/03 03:06:47;;;;;;;;;86.75;64.25;;;;;10.16;58.20;101349.75;5099618;27;45270;-38
2022/03/03 03:09:12;;;;;;;;;88.75;61.00;;;;;10.19;58.29;101352.97;5098841;27;46029;-41
2022/03/03 03:11:38;;;;;;;;;81.25;60.75;;;;;10.23;58.46;101354.38;5098938;27;45458;-40
2022/03/03 03:14:04;;;;;;;;;82.00;61.25;;;;;10.21;58.44;101345.72;5099603;27;45473;-42
2022/03/03 03:16:29;;;;;;;;;83.00;59.25;;;;;10.13;58.63;101345.50;5099482;27;45587;-40
2022/03/03 03:18:54;;;;;;;;;84.75;64.00;;;;;10.18;58.65;101345.13;5099021;27;46644;-41
2022/03/03 03:21:20;;;;;;;;;84.25;63.50;;;;;10.19;58.15;101336.16;5099031;27;45767;-40
2022/03/03 03:23:45;;;;;;;;;83.00;59.00;;;;;10.14;58.95;101339.22;5099330;27;45333;-40
2022/03/03 03:26:10;;;;;;;;;80.25;61.00;;;;;10.10;59.37;101336.94;5098920;27;45515;-41
2022/03/03 03:28:36;;;;;;;;;81.25;61.00;;;;;10.11;59.16;101333.31;5098811;27;47393;-41
2022/03/03 03:31:01;;;;;;;;;79.00;62.50;;;;;10.12;59.13;101327.88;5097738;27;45436;-40
2022/03/03 03:33:26;;;;;;;;;81.00;63.00;;;;;10.13;59.25;101329.56;5098866;27;45240;-41
2022/03/03 03:35:52;;;;;;;;;87.00;63.50;;;;;10.11;59.15;101322.69;5099163;27;45359;-41
2022/03/03 03:38:17;;;;;;;;;80.00;62.25;;;;;10.12;59.26;101325.22;5098605;27;45359;-41
2022/03/03 03:40:43;;;;;;;;;86.00;59.25;;;;;10.08;59.70;101321.13;5098590;27;45417;-41
2022/03/03 03:43:08;;;;;;;;;78.75;59.25;;;;;10.13;59.67;101318.09;5098695;27;45327;-40
2022/03/03 03:45:35;;;;;;;;;78.00;60.75;;;;;10.17;59.50;101316.84;5098631;27;45373;-41
2022/03/03 03:48:01;;;;;;;;;79.25;58.00;;;;;10.17;59.70;101317.69;5097496;27;46339;-41
2022/03/03 03:50:28;;;;;;;;;77.75;58.25;;;;;10.18;59.20;101319.38;5097737;27;45163;-41
2022/03/03 03:52:55;;;;;;;;;80.75;60.75;;;;;10.10;59.60;101300.56;5098456;27;45463;-39
2022/03/03 03:55:20;;;;;;;;;79.25;60.25;;;;;10.21;59.69;101308.50;5098676;27;45362;-39
2022/03/03 03:57:46;;;;;;;;;79.75;59.00;;;;;10.14;59.83;101296.69;5098261;27;45420;-39
2022/03/03 04:00:13;;;;;;;;;76.25;58.00;;;;;10.26;59.66;101305.47;5098320;27;45460;-40
2022/03/03 04:02:43;;;;;;;;;79.75;62.25;;;;;10.26;59.51;101304.63;5098483;27;45406;-40
2022/03/03 04:05:09;;;;;;;;;84.50;61.00;;;;;10.24;59.83;101302.09;5098641;27;45196;-40
2022/03/03 04:07:34;;;;;;;;;78.75;58.25;;;;;10.17;60.21;101287.63;5098127;27;45393;-40
2022/03/03 04:10:00;;;;;;;;;78.50;57.25;;;;;10.27;59.59;101306.31;5098225;27;45378;-39
2022/03/03 04:12:25;;;;;;;;;79.50;60.25;;;;;10.19;59.57;101301.59;5098050;27;45596;-41
2022/03/03 04:14:51;;;;;;;;;82.50;61.50;;;;;10.32;59.66;101299.63;5098537;27;45378;-40
2022/03/03 04:17:16;;;;;;;;;80.50;57.50;;;;;10.34;59.43;101296.84;5097922;27;46058;-42
2022/03/03 04:19:41;;;;;;;;;78.25;58.50;;;;;10.32;60.10;101288.97;5098014;27;45390;-40
2022/03/03 04:22:07;;;;;;;;;85.00;61.00;;;;;10.30;59.99;101287.44;5097943;27;45424;-39
2022/03/03 04:24:32;;;;;;;;;74.50;58.75;;;;;10.26;60.21;101280.69;5098246;27;45401;-41
2022/03/03 04:26:58;;;;;;;;;81.25;60.00;;;;;10.30;59.97;101288.28;5097773;27;46375;-41
2022/03/03 04:29:24;;;;;;;;;78.75;58.75;;;;;10.30;60.48;101285.63;5097774;27;45348;-41
2022/03/03 04:31:51;;;;;;;;;80.50;58.50;;;;;10.25;60.22;101271.88;5098016;27;45396;-40
2022/03/03 04:34:17;;;;;;;;;77.00;57.75;;;;;10.27;60.83;101275.25;5097889;27;45362;-40
2022/03/03 04:36:42;;;;;;;;;79.75;58.00;;;;;10.24;60.46;101273.69;5097666;27;47303;-38
2022/03/03 04:39:08;;;;;;;;;78.00;58.00;;;;;10.14;61.22;101248.00;5097541;27;45417;-41
2022/03/03 04:41:33;;;;;;;;;77.25;57.25;;;;;10.24;61.90;101263.06;5097705;27;45437;-40
2022/03/03 04:43:58;;;;;;;;;75.00;55.75;;;;;10.22;61.98;101264.13;5098121;27;45349;-40
2022/03/03 04:46:24;;;;;;;;;72.00;54.25;;;;;10.22;62.09;101267.63;5097290;27;46177;-41
2022/03/03 04:48:49;;;;;;;;;74.75;55.25;;;;;10.10;62.51;101252.72;5097616;27;45327;-41
2022/03/03 04:51:15;;;;;;;;;71.75;56.25;;;;;10.22;62.29;101264.97;5097676;27;46036;-41
2022/03/03 04:53:40;;;;;;;;;73.00;54.50;;;;;10.24;62.69;101259.53;5097776;27;45343;-42
2022/03/03 04:56:06;;;;;;;;;71.25;54.00;;;;;10.24;62.86;101259.53;5096808;27;45401;-41
2022/03/03 04:58:31;;;;;;;;;74.25;58.25;;;;;10.22;62.45;101251.66;5097104;27;45311;-40
2022/03/03 05:00:57;;;;;;;;;71.75;54.75;;;;;10.26;62.79;101264.75;5097554;27;45453;-41
2022/03/03 05:03:22;;;;;;;;;72.25;55.00;;;;;10.21;62.86;101250.00;5097786;27;45409;-40
2022/03/03 05:05:48;;;;;;;;;70.75;52.25;;;;;10.22;62.66;101250.84;5097377;27;45963;-41
2022/03/03 05:08:13;;;;;;;;;75.00;55.25;;;;;10.20;64.19;101255.47;5097317;27;45299;-41
2022/03/03 05:10:38;;;;;;;;;66.25;49.50;;;;;10.19;63.27;101256.41;5097543;27;45472;-40
2022/03/03 05:13:04;;;;;;;;;69.50;52.50;;;;;10.19;64.16;101261.72;5097210;27;45319;-41
2022/03/03 05:15:29;;;;;;;;;68.00;53.25;;;;;10.18;63.81;101260.88;5097173;27;46868;-40
2022/03/03 05:17:55;;;;;;;;;61.25;50.00;;;;;10.20;63.49;101252.78;5097099;27;45166;-39
2022/03/03 05:20:21;;;;;;;;;62.50;48.50;;;;;10.08;64.55;101235.25;5097303;27;45260;-41
2022/03/03 05:22:47;;;;;;;;;67.00;51.50;;;;;10.18;64.10;101257.38;5097492;27;45382;-41
2022/03/03 05:25:12;;;;;;;;;68.50;52.75;;;;;10.15;64.51;101258.47;5096944;27;47139;-40
2022/03/03 05:27:39;;;;;;;;;68.25;50.00;;;;;10.16;64.87;101251.38;5097048;27;45476;-39
2022/03/03 05:30:06;;;;;;;;;67.00;49.50;;;;;10.15;64.91;101249.66;5097071;27;45378;-41
2022/03/03 05:32:32;;;;;;;;;66.50;48.75;;;;;10.12;65.04;101248.13;5079218;27;45358;-40
2022/03/03 05:34:57;;;;;;;;;66.75;52.75;;;;;10.11;65.31;101246.47;5096717;27;46211;-40
2022/03/03 05:37:24;;;;;;;;;70.00;53.50;;;;;10.15;65.11;101247.00;5096700;27;45444;-40
2022/03/03 05:39:53;;;;;;;;;63.00;50.50;;;;;10.17;65.49;101243.25;5097106;27;45319;-41
2022/03/03 05:42:23;;;;;;;;;65.50;52.75;;;;;10.22;65.36;101238.38;5096885;27;45434;-39
2022/03/03 05:44:49;;;;;;;;;58.00;45.25;;;;;10.22;65.97;101248.19;5096609;27;47097;-41
2022/03/03 05:47:15;;;;;;;;;65.50;52.00;;;;;10.22;66.12;101246.34;5096650;27;45378;-40
2022/03/03 05:49:43;;;;;;;;;69.75;50.50;;;;;10.23;66.06;101247.19;5096641;27;45370;-39
2022/03/03 05:52:09;;;;;;;;;63.00;47.50;;;;;10.23;66.25;101256.00;5097226;27;45198;-41
2022/03/03 05:54:36;;;;;;;;;61.25;47.25;;;;;10.24;67.24;101256.88;5096481;27;46225;-40
2022/03/03 05:57:02;;;;;;;;;64.25;49.75;;;;;10.23;67.14;101253.34;5096585;27;45354;-41
2022/03/03 05:59:31;;;;;;;;;63.25;48.00;;;;;10.24;67.32;101260.41;5096589;27;45444;-41
2022/03/03 06:01:58;;;;;;;;;60.50;44.00;;;;;10.17;67.32;101243.25;5096879;27;45366;-42
2022/03/03 06:04:28;;;;;;;;;59.50;46.25;;;;;10.27;67.15;101250.47;5096439;27;46238;-41
2022/03/03 06:07:02;;;;;;;;;63.75;48.00;;;;;10.28;67.04;101249.47;5096443;27;45457;-41
2022/03/03 06:09:32;;;;;;;;;63.50;48.50;;;;;10.30;67.07;101256.38;5096369;27;45657;-43
2022/03/03 06:12:30;;;;;;;;;64.00;46.50;;;;;10.27;67.39;101247.81;5099251;27;45330;-42
2022/03/03 06:15:03;;;;;;;;;64.25;48.00;;;;;10.23;66.88;101247.19;5077597;27;45463;-41
2022/03/03 06:17:30;;;;;;;;;58.50;46.50;;;;;10.27;66.98;101253.13;5099812;27;45398;-40
2022/03/03 06:19:58;;;;;;;;;61.00;48.00;;;;;10.27;66.20;101248.66;5099862;27;45436;-43
2022/03/03 06:22:24;;;;;;;;;55.00;44.25;;;;;10.26;66.70;101251.44;5100155;27;45315;-41
2022/03/03 06:24:49;;;;;;;;;65.75;48.50;;;;;10.26;67.53;101248.78;5099771;27;45462;-42
2022/03/03 06:27:15;;;;;;;;;64.50;46.50;;;;;10.22;67.27;101264.13;5099878;27;45391;-42
2022/03/03 06:29:41;;;;;;;;;62.25;48.00;;;;;10.19;67.87;101261.72;5100002;27;45157;-41
2022/03/03 06:32:07;;;;;;;;;60.50;47.00;;;;;10.20;67.86;101263.44;5100065;27;45435;-41
2022/03/03 06:34:32;;;;;;;;;60.00;46.00;;;;;10.20;69.02;101260.78;5081514;27;46173;-40
2022/03/03 06:36:58;;;;;;;;;67.75;50.25;;;;;10.19;68.60;101261.72;5099986;27;45255;-38
2022/03/03 06:39:23;;;;;;;;;62.75;45.75;;;;;10.20;68.17;101260.78;5099927;27;45231;-40
2022/03/03 06:41:50;;;;;;;;;61.75;44.75;;;;;10.20;68.53;101266.09;5100265;27;45299;-42
2022/03/03 06:44:15;;;;;;;;;61.75;45.25;;;;;10.23;68.38;101268.47;5099472;27;46133;-41
2022/03/03 06:46:42;;;;;;;;;60.00;45.25;;;;;10.24;68.56;101270.19;5099459;27;45410;-41
2022/03/03 06:49:07;;;;;;;;;56.00;45.50;;;;;10.26;68.20;101272.72;5099976;27;45358;-41
2022/03/03 06:51:41;;;;;;;;;61.25;42.50;;;;;10.24;68.42;101265.72;5099691;27;45347;-41
2022/03/03 06:54:11;;;;;;;;;66.75;46.50;;;;;10.31;68.14;101267.84;5099311;27;46263;-40
2022/03/03 06:56:54;;;;;;;;;62.75;44.25;;;;;10.33;68.55;101265.91;5099524;27;45387;-42
2022/03/03 06:59:22;;;;;;;;;59.25;46.00;;;;;10.33;68.07;101276.53;5099539;27;45429;-42
2022/03/03 07:01:49;;;;;;;;;63.25;44.75;;;;;10.35;68.76;101262.13;5099553;27;45185;-41
2022/03/03 07:04:16;;;;;;;;;61.00;48.00;;;;;10.37;68.38;101272.66;5099113;27;46268;-41
2022/03/03 07:06:43;;;;;;;;;69.25;49.50;;;;;10.39;67.92;101273.34;5098510;27;45489;-41
2022/03/03 07:09:08;;;;;;;;;62.75;50.00;;;;;10.43;68.51;101274.75;5099260;27;45256;-42
2022/03/03 07:11:36;;;;;;;;;62.50;45.75;;;;;10.43;68.76;101270.28;5099541;27;45501;-42
2022/03/03 07:14:02;;;;;;;;;71.50;51.25;;;;;10.36;68.43;101252.31;5098868;27;46098;-40
2022/03/03 07:16:36;;;;;;;;;58.25;44.75;;;;;10.46;68.60;101270.03;5098915;27;45390;-41
2022/03/03 07:19:04;;;;;;;;;63.50;46.75;;;;;10.49;68.17;101272.44;5099341;27;45261;-41
2022/03/03 07:22:07;;;;;;;;;56.25;45.00;;;;;10.48;68.23;101272.53;5099202;27;45250;-41
2022/03/03 07:24:40;;;;;;;;;60.00;43.25;;;;;10.47;68.56;101277.03;4995765;28;46013;-41
2022/03/03 07:27:11;;;;;;;;;60.75;46.25;;;;;10.48;68.34;101272.53;4996065;28;45387;-40
2022/03/03 07:29:36;;;;;;;;;67.50;49.75;;;;;10.51;68.10;101276.78;4995877;28;45446;-42
2022/03/03 07:32:07;;;;;;;;;66.25;46.75;;;;;10.54;68.29;101281.84;4996229;28;45508;-42
2022/03/03 07:34:36;;;;;;;;;69.25;48.75;;;;;10.54;68.69;101266.72;4995856;28;46245;-42
2022/03/03 07:37:07;;;;;;;;;58.75;43.25;;;;;10.61;68.44;101272.31;4995822;28;45344;-42
2022/03/03 07:39:41;;;;;;;;;70.50;49.25;;;;;10.66;68.26;101275.41;4995748;28;45490;-40
2022/03/03 07:42:16;;;;;;;;;55.50;44.50;;;;;10.65;68.74;101265.75;4996334;28;45391;-40
2022/03/03 07:44:41;;;;;;;;;62.50;48.25;;;;;10.61;68.67;101259.84;4995527;28;46115;-40
2022/03/03 07:47:08;;;;;;;;;62.50;46.75;;;;;10.74;68.57;101280.91;4995520;28;45699;-41
2022/03/03 07:49:34;;;;;;;;;67.00;49.75;;;;;10.73;69.04;101274.75;4996031;28;45435;-40
2022/03/03 07:52:02;;;;;;;;;62.50;48.75;;;;;10.76;68.37;101270.97;4995678;28;45465;-42
2022/03/03 07:54:27;;;;;;;;;67.00;50.00;;;;;10.79;68.38;101275.19;4995530;28;45417;-41
2022/03/03 07:56:56;;;;;;;;;62.75;48.00;;;;;10.83;68.68;101268.59;4995472;28;45380;-41
2022/03/03 07:59:27;;;;;;;;;59.00;46.00;;;;;10.87;68.29;101276.22;4995407;28;45323;-42
2022/03/03 08:01:54;;;;;;;;;68.75;49.00;;;;;10.92;69.04;101281.13;5088686;27;45514;-41
2022/03/03 08:04:26;;;;;;;;;55.25;43.00;;;;;10.90;67.85;101275.09;5097951;27;45536;-40
2022/03/03 08:06:55;;;;;;;;;65.50;43.00;;;;;10.90;68.14;101275.09;5098059;27;45323;-42
2022/03/03 08:09:22;;;;;;;;;68.25;46.25;;;;;10.90;68.31;101272.41;5098563;27;45312;-41
2022/03/03 08:11:51;;;;;;;;;54.50;44.00;;;;;10.92;68.63;101270.47;5098329;27;45262;-42
2022/03/03 08:14:16;;;;;;;;;58.00;44.00;;;;;10.96;68.68;101274.56;5097665;27;46211;-42
2022/03/03 08:16:45;;;;;;;;;60.25;46.00;;;;;10.96;68.54;101271.91;5098085;27;45452;-41
2022/03/03 08:19:10;;;;;;;;;50.75;43.75;;;;;10.91;68.23;101258.13;5098179;27;45476;-42
2022/03/03 08:21:37;;;;;;;;;64.00;45.75;;;;;10.98;68.30;101270.75;5098528;27;45252;-40
2022/03/03 08:24:03;;;;;;;;;53.50;40.50;;;;;11.04;66.71;101265.84;5097947;27;46073;-41
2022/03/03 08:26:29;;;;;;;;;58.25;42.75;;;;;11.04;68.43;101261.41;5097943;27;45284;-40
2022/03/03 08:28:55;;;;;;;;;64.75;46.50;;;;;11.01;67.75;101255.50;5097922;27;45360;-41
2022/03/03 08:31:28;;;;;;;;;62.50;44.25;;;;;11.10;68.10;101258.19;5098006;27;45204;-44
2022/03/03 08:34:02;;;;;;;;;64.50;47.00;;;;;11.09;67.93;101256.50;5097353;27;46987;-43
2022/03/03 08:36:44;;;;;;;;;64.50;46.00;;;;;11.17;68.18;101263.81;5097678;27;45468;-42
2022/03/03 08:39:11;;;;;;;;;59.50;43.25;;;;;11.20;67.68;101263.50;5097680;27;45380;-41
2022/03/03 08:41:39;;;;;;;;;54.00;43.50;;;;;11.26;68.13;101254.16;5097942;27;45452;-42
2022/03/03 08:44:07;;;;;;;;;64.75;44.50;;;;;11.34;67.72;101254.31;5097446;27;45302;-41
2022/03/03 08:46:35;;;;;;;;;65.25;46.25;;;;;11.41;67.36;101261.56;5097276;27;46083;-42
2022/03/03 08:49:02;;;;;;;;;47.25;39.00;;;;;11.51;67.06;101269.59;5097792;27;45377;-42
2022/03/03 08:51:28;;;;;;;;;61.50;42.25;;;;;11.55;67.04;101252.34;5098000;27;45299;-41
2022/03/03 08:53:54;;;;;;;;;59.00;41.00;;;;;11.71;66.23;101265.94;5097624;27;45301;-42
2022/03/03 08:56:20;;;;;;;;;59.50;47.25;;;;;11.70;66.58;101256.25;5096626;27;45409;-41
2022/03/03 08:58:46;;;;;;;;;56.00;43.25;;;;;11.82;66.60;101269.44;5097664;27;45567;-42
2022/03/03 09:01:12;;;;;;;;;64.50;46.50;;;;;11.92;66.61;101259.63;5098007;27;45449;-39
2022/03/03 09:03:39;;;;;;;;;53.75;41.50;;;;;11.96;66.42;101266.34;5096476;27;45475;-40
2022/03/03 09:06:05;;;;;;;;;55.25;41.75;;;;;11.97;65.96;101263.56;5097603;27;45419;-40
2022/03/03 09:08:30;;;;;;;;;57.00;40.25;;;;;12.00;66.16;101275.75;5097774;27;45355;-41
2022/03/03 09:10:55;;;;;;;;;60.50;44.00;;;;;12.00;65.79;101270.41;5097970;27;45735;-41
2022/03/03 09:13:21;;;;;;;;;57.75;43.25;;;;;12.02;66.01;101273.78;5097391;27;46012;-41
2022/03/03 09:15:46;;;;;;;;;62.75;46.75;;;;;12.07;65.90;101273.34;5097096;27;45490;-41
2022/03/03 09:18:12;;;;;;;;;64.25;47.00;;;;;12.09;65.80;101276.72;5097989;27;45227;-42
2022/03/03 09:20:37;;;;;;;;;58.25;43.00;;;;;12.13;65.74;101270.94;5097852;27;45475;-41
2022/03/03 09:23:03;;;;;;;;;51.25;43.25;;;;;12.13;65.99;101265.59;5097551;27;45903;-39
2022/03/03 09:25:29;;;;;;;;;64.50;48.00;;;;;12.18;65.94;101270.53;5097330;27;45387;-41
2022/03/03 09:27:55;;;;;;;;;62.00;42.25;;;;;12.12;65.88;101271.09;5097705;27;45331;-40
2022/03/03 09:30:21;;;;;;;;;35.00;19.75;;;;;12.12;65.75;101279.94;5097340;27;45165;-38
2022/03/03 09:32:47;;;;;;;;;66.00;49.75;;;;;12.07;65.93;101268.03;5096997;27;45933;-41
2022/03/03 09:35:13;;;;;;;;;57.50;43.50;;;;;12.10;65.77;101273.06;5097145;27;45386;-41
2022/03/03 09:37:39;;;;;;;;;62.50;47.50;;;;;12.09;66.27;101271.38;5096980;27;45436;-42
2022/03/03 09:40:07;;;;;;;;;65.75;45.50;;;;;12.13;66.00;101276.28;5097387;27;45361;-41
2022/03/03 09:42:34;;;;;;;;;64.00;46.75;;;;;12.05;65.94;101270.84;5096735;27;46093;-41
2022/03/03 09:45:08;;;;;;;;;58.75;48.00;;;;;12.05;65.38;101270.84;5096380;27;45515;-41
2022/03/03 09:47:35;;;;;;;;;58.25;44.25;;;;;12.09;66.10;101264.22;5099308;27;45379;-41
2022/03/03 09:50:01;;;;;;;;;60.25;45.75;;;;;12.18;65.82;101278.53;5100821;27;45378;-41
2022/03/03 09:52:28;;;;;;;;;57.50;45.00;;;;;12.23;65.07;101266.44;5100093;27;45420;-40
2022/03/03 09:54:57;;;;;;;;;58.25;44.25;;;;;12.32;64.99;101259.38;5100231;27;45496;-41
2022/03/03 09:57:24;;;;;;;;;64.75;48.25;;;;;12.43;64.93;101269.03;5100328;27;45463;-40
2022/03/03 09:59:52;;;;;;;;;59.50;46.50;;;;;12.47;64.86;101265.94;5100442;27;45549;-40
2022/03/03 10:02:18;;;;;;;;;58.00;43.75;;;;;12.56;64.75;101263.38;5098986;27;46339;-38
2022/03/03 10:04:44;;;;;;;;;60.50;44.75;;;;;12.67;64.19;101256.00;5100207;27;45278;-39
2022/03/03 10:07:10;;;;;;;;;64.75;47.25;;;;;12.79;64.01;101259.31;5100002;27;45375;-41
2022/03/03 10:09:59;;;;;;;;;65.50;48.25;;;;;12.90;63.64;101267.16;5100713;27;45376;-40
2022/03/03 10:12:23;;;;;;;;;62.75;45.25;;;;;12.96;63.47;101271.88;5099937;27;45598;-40
2022/03/03 10:14:49;;;;;;;;;57.25;43.00;;;;;13.08;63.13;101266.34;5099864;27;45447;-42
2022/03/03 10:17:16;;;;;;;;;56.25;45.50;;;;;13.14;62.47;101269.22;5100208;27;45359;-39
2022/03/03 10:19:56;;;;;;;;;59.25;47.00;;;;;13.23;62.40;101270.19;5100188;27;45375;-41
2022/03/03 10:22:41;;;;;;;;;60.00;46.00;;;;;13.31;62.69;101262.25;5099711;27;46263;-40
2022/03/03 10:25:09;;;;;;;;;59.00;44.25;;;;;13.42;61.85;101258.53;5099704;27;45514;-40
2022/03/03 10:27:34;;;;;;;;;56.75;43.75;;;;;13.44;61.78;101268.09;5100094;27;45256;-42
2022/03/03 10:30:01;;;;;;;;;64.25;47.50;;;;;13.35;62.02;101260.13;5099880;27;45513;-39
2022/03/03 10:32:26;;;;;;;;;60.00;45.25;;;;;13.35;62.38;101260.97;5099863;27;45463;-41
2022/03/03 10:34:56;;;;;;;;;62.00;45.25;;;;;13.45;61.95;101256.41;5099884;27;45615;-41
2022/03/03 10:37:23;;;;;;;;;65.25;48.25;;;;;13.42;61.85;101254.03;5099725;27;45328;-41
2022/03/03 10:39:59;;;;;;;;;49.00;43.75;;;;;13.37;61.91;101252.81;5099924;27;45323;-41
2022/03/03 10:42:25;;;;;;;;;70.25;45.75;;;;;13.29;62.28;101256.25;5098675;27;46220;-43
2022/03/03 10:45:04;;;;;;;;;60.25;46.25;;;;;13.16;61.90;101253.91;5099312;27;45348;-42
2022/03/03 10:47:30;;;;;;;;;64.25;47.50;;;;;12.91;62.82;101241.28;5098691;27;45418;-42
2022/03/03 10:49:57;;;;;;;;;61.50;45.75;;;;;12.91;62.81;101257.31;5081456;27;45590;-40
2022/03/03 10:52:29;;;;;;;;;58.00;45.25;;;;;12.89;63.13;101257.47;5099238;27;46029;-41
2022/03/03 10:55:10;;;;;;;;;70.75;46.25;;;;;12.93;63.00;101257.97;5099412;27;45547;-41
2022/03/03 10:57:45;;;;;;;;;58.25;46.25;;;;;13.02;63.23;101253.56;5099286;27;45471;-41
2022/03/03 11:00:23;;;;;;;;;61.00;45.25;;;;;13.09;62.27;101252.00;5099653;27;45374;-41
2022/03/03 11:02:54;;;;;;;;;61.00;43.75;;;;;13.17;61.98;101250.25;5099325;27;45408;-40
2022/03/03 11:05:21;;;;;;;;;63.00;43.00;;;;;13.29;62.20;101250.91;5099147;27;45420;-43
2022/03/03 11:07:49;;;;;;;;;61.75;45.75;;;;;13.35;61.71;101241.44;5099377;27;45470;-42
2022/03/03 11:10:17;;;;;;;;;57.00;42.25;;;;;13.45;61.20;101245.72;5099370;27;45446;-41
2022/03/03 11:12:43;;;;;;;;;55.00;42.25;;;;;13.47;61.20;101249.06;5099137;27;46172;-42